sensor_id;sensor_type;location;lat;lon;timestamp;P1;durP1;ratioP1;P2;durP2;ratioP2
75156;SDS011;63736;50.076;8.198;2023-12-14T00:02:13;643.87;;;173.13;;
75156;SDS011;63736;50.076;8.198;2023-12-14T00:04:38;710.17;;;213.13;;
75156;SDS011;63736;50.076;8.198;2023-12-14T00:07:03;706.80;;;210.50;;
75156;SDS011;63736;50.076;8.198;2023-12-14T00:09:28;691.53;;;203.07;;
75156;SDS011;63736;50.076;8.198;2023-12-14T00:11:54;704.93;;;208.50;;
75156;SDS011;63736;50.076;8.198;2023-12-14T00:14:19;711.33;;;213.20;;
75156;SDS011;63736;50.076;8.198;2023-12-14T00:16:44;705.07;;;211.23;;
75156;SDS011;63736;50.076;8.198;2023-12-14T00:19:09;718.40;;;216.90;;
75156;SDS011;63736;50.076;8.198;2023-12-14T00:21:35;722.13;;;219.83;;
75156;SDS011;63736;50.076;8.198;2023-12-14T00:24:00;714.43;;;216.40;;
75156;SDS011;63736;50.076;8.198;2023-12-14T00:26:25;733.90;;;224.10;;
75156;SDS011;63736;50.076;8.198;2023-12-14T00:28:51;758.00;;;242.07;;
75156;SDS011;63736;50.076;8.198;2023-12-14T00:31:16;751.33;;;245.47;;
75156;SDS011;63736;50.076;8.198;2023-12-14T00:33:42;746.53;;;241.05;;
75156;SDS011;63736;50.076;8.198;2023-12-14T00:36:09;776.40;;;258.45;;
75156;SDS011;63736;50.076;8.198;2023-12-14T00:38:34;773.17;;;254.37;;
75156;SDS011;63736;50.076;8.198;2023-12-14T00:41:00;758.30;;;241.13;;
75156;SDS011;63736;50.076;8.198;2023-12-14T00:43:25;757.97;;;235.30;;
75156;SDS011;63736;50.076;8.198;2023-12-14T00:45:50;779.87;;;247.53;;
75156;SDS011;63736;50.076;8.198;2023-12-14T00:48:17;857.72;;;452.42;;
75156;SDS011;63736;50.076;8.198;2023-12-14T00:50:42;815.30;;;327.27;;
75156;SDS011;63736;50.076;8.198;2023-12-14T00:53:08;815.43;;;339.00;;
75156;SDS011;63736;50.076;8.198;2023-12-14T00:55:33;825.30;;;336.93;;
75156;SDS011;63736;50.076;8.198;2023-12-14T00:57:58;799.60;;;343.87;;
75156;SDS011;63736;50.076;8.198;2023-12-14T01:00:23;786.87;;;326.20;;
75156;SDS011;63736;50.076;8.198;2023-12-14T01:02:49;764.47;;;297.10;;
75156;SDS011;63736;50.076;8.198;2023-12-14T01:05:14;793.80;;;321.90;;
75156;SDS011;63736;50.076;8.198;2023-12-14T01:07:39;791.70;;;322.60;;
75156;SDS011;63736;50.076;8.198;2023-12-14T01:10:05;808.90;;;332.80;;
75156;SDS011;63736;50.076;8.198;2023-12-14T01:12:31;812.00;;;332.17;;
75156;SDS011;63736;50.076;8.198;2023-12-14T01:14:56;832.95;;;353.42;;
75156;SDS011;63736;50.076;8.198;2023-12-14T01:17:21;823.77;;;346.83;;
75156;SDS011;63736;50.076;8.198;2023-12-14T01:19:47;833.37;;;369.10;;
75156;SDS011;63736;50.076;8.198;2023-12-14T01:22:12;842.93;;;368.17;;
75156;SDS011;63736;50.076;8.198;2023-12-14T01:24:37;848.47;;;376.13;;
75156;SDS011;63736;50.076;8.198;2023-12-14T01:27:02;849.20;;;367.77;;
75156;SDS011;63736;50.076;8.198;2023-12-14T01:29:28;831.53;;;367.47;;
75156;SDS011;63736;50.076;8.198;2023-12-14T01:31:53;833.83;;;374.57;;
75156;SDS011;63736;50.076;8.198;2023-12-14T01:34:19;851.30;;;377.35;;
75156;SDS011;63736;50.076;8.198;2023-12-14T01:36:44;858.10;;;378.30;;
75156;SDS011;63736;50.076;8.198;2023-12-14T01:39:09;870.40;;;381.77;;
75156;SDS011;63736;50.076;8.198;2023-12-14T01:41:34;873.97;;;384.00;;
75156;SDS011;63736;50.076;8.198;2023-12-14T01:44:00;874.73;;;390.97;;
75156;SDS011;63736;50.076;8.198;2023-12-14T01:46:25;873.87;;;387.43;;
75156;SDS011;63736;50.076;8.198;2023-12-14T01:48:50;864.50;;;378.03;;
75156;SDS011;63736;50.076;8.198;2023-12-14T01:51:17;856.85;;;372.65;;
75156;SDS011;63736;50.076;8.198;2023-12-14T01:53:43;848.73;;;367.07;;
75156;SDS011;63736;50.076;8.198;2023-12-14T01:56:08;845.80;;;365.47;;
75156;SDS011;63736;50.076;8.198;2023-12-14T01:58:34;847.03;;;363.90;;
75156;SDS011;63736;50.076;8.198;2023-12-14T02:03:53;873.70;;;377.93;;
75156;SDS011;63736;50.076;8.198;2023-12-14T02:06:19;874.97;;;374.40;;
75156;SDS011;63736;50.076;8.198;2023-12-14T02:08:45;876.85;;;372.52;;
75156;SDS011;63736;50.076;8.198;2023-12-14T02:11:11;881.37;;;371.43;;
75156;SDS011;63736;50.076;8.198;2023-12-14T02:13:36;877.05;;;371.63;;
75156;SDS011;63736;50.076;8.198;2023-12-14T02:16:02;880.17;;;370.23;;
75156;SDS011;63736;50.076;8.198;2023-12-14T02:18:27;878.00;;;366.97;;
75156;SDS011;63736;50.076;8.198;2023-12-14T02:20:52;877.07;;;364.57;;
75156;SDS011;63736;50.076;8.198;2023-12-14T02:23:18;880.50;;;365.40;;
75156;SDS011;63736;50.076;8.198;2023-12-14T02:25:43;876.53;;;363.00;;
75156;SDS011;63736;50.076;8.198;2023-12-14T02:28:08;875.77;;;363.57;;
75156;SDS011;63736;50.076;8.198;2023-12-14T02:30:34;884.03;;;362.67;;
75156;SDS011;63736;50.076;8.198;2023-12-14T02:32:59;883.07;;;360.33;;
75156;SDS011;63736;50.076;8.198;2023-12-14T02:35:24;882.43;;;358.47;;
75156;SDS011;63736;50.076;8.198;2023-12-14T02:37:49;885.83;;;361.53;;
75156;SDS011;63736;50.076;8.198;2023-12-14T02:40:15;887.67;;;359.07;;
75156;SDS011;63736;50.076;8.198;2023-12-14T02:42:40;889.57;;;361.63;;
75156;SDS011;63736;50.076;8.198;2023-12-14T02:45:06;892.67;;;359.40;;
75156;SDS011;63736;50.076;8.198;2023-12-14T02:47:33;902.08;;;369.27;;
75156;SDS011;63736;50.076;8.198;2023-12-14T02:49:58;946.97;;;372.57;;
75156;SDS011;63736;50.076;8.198;2023-12-14T02:52:24;932.47;;;347.13;;
75156;SDS011;63736;50.076;8.198;2023-12-14T02:54:49;923.83;;;338.20;;
75156;SDS011;63736;50.076;8.198;2023-12-14T02:57:14;914.70;;;344.93;;
75156;SDS011;63736;50.076;8.198;2023-12-14T02:59:39;922.03;;;347.30;;
75156;SDS011;63736;50.076;8.198;2023-12-14T03:02:05;934.47;;;349.40;;
75156;SDS011;63736;50.076;8.198;2023-12-14T03:04:31;932.17;;;362.85;;
75156;SDS011;63736;50.076;8.198;2023-12-14T03:06:56;901.70;;;337.73;;
75156;SDS011;63736;50.076;8.198;2023-12-14T03:09:22;885.80;;;339.83;;
75156;SDS011;63736;50.076;8.198;2023-12-14T03:11:47;893.13;;;347.63;;
75156;SDS011;63736;50.076;8.198;2023-12-14T03:14:13;898.93;;;349.50;;
75156;SDS011;63736;50.076;8.198;2023-12-14T03:16:38;918.73;;;366.63;;
75156;SDS011;63736;50.076;8.198;2023-12-14T03:19:03;873.67;;;336.30;;
75156;SDS011;63736;50.076;8.198;2023-12-14T03:21:29;897.63;;;357.30;;
75156;SDS011;63736;50.076;8.198;2023-12-14T03:23:54;894.20;;;350.30;;
75156;SDS011;63736;50.076;8.198;2023-12-14T03:26:20;900.47;;;347.90;;
75156;SDS011;63736;50.076;8.198;2023-12-14T03:28:45;908.40;;;355.03;;
75156;SDS011;63736;50.076;8.198;2023-12-14T03:31:11;922.05;;;373.73;;
75156;SDS011;63736;50.076;8.198;2023-12-14T03:33:37;942.53;;;387.95;;
75156;SDS011;63736;50.076;8.198;2023-12-14T03:36:03;949.03;;;408.87;;
75156;SDS011;63736;50.076;8.198;2023-12-14T03:38:28;964.97;;;425.67;;
75156;SDS011;63736;50.076;8.198;2023-12-14T03:40:54;885.63;;;338.87;;
75156;SDS011;63736;50.076;8.198;2023-12-14T03:43:19;882.77;;;333.47;;
75156;SDS011;63736;50.076;8.198;2023-12-14T03:45:44;932.93;;;351.37;;
75156;SDS011;63736;50.076;8.198;2023-12-14T03:48:10;926.00;;;360.60;;
75156;SDS011;63736;50.076;8.198;2023-12-14T03:50:35;920.73;;;362.77;;
75156;SDS011;63736;50.076;8.198;2023-12-14T03:53:00;905.47;;;348.10;;
75156;SDS011;63736;50.076;8.198;2023-12-14T03:55:26;918.90;;;362.33;;
75156;SDS011;63736;50.076;8.198;2023-12-14T03:57:51;915.70;;;358.47;;
75156;SDS011;63736;50.076;8.198;2023-12-14T04:00:16;922.20;;;365.07;;
75156;SDS011;63736;50.076;8.198;2023-12-14T04:02:42;929.88;;;365.52;;
75156;SDS011;63736;50.076;8.198;2023-12-14T04:05:08;936.17;;;371.73;;
75156;SDS011;63736;50.076;8.198;2023-12-14T04:07:35;946.05;;;370.20;;
75156;SDS011;63736;50.076;8.198;2023-12-14T04:10:01;951.60;;;377.88;;
75156;SDS011;63736;50.076;8.198;2023-12-14T04:12:26;961.23;;;383.43;;
75156;SDS011;63736;50.076;8.198;2023-12-14T04:14:51;954.50;;;393.33;;
75156;SDS011;63736;50.076;8.198;2023-12-14T04:17:17;954.73;;;390.17;;
75156;SDS011;63736;50.076;8.198;2023-12-14T04:19:42;968.03;;;405.87;;
75156;SDS011;63736;50.076;8.198;2023-12-14T04:22:07;972.80;;;404.23;;
75156;SDS011;63736;50.076;8.198;2023-12-14T04:24:33;969.47;;;430.17;;
75156;SDS011;63736;50.076;8.198;2023-12-14T04:26:58;947.20;;;394.88;;
75156;SDS011;63736;50.076;8.198;2023-12-14T04:29:24;940.80;;;384.37;;
75156;SDS011;63736;50.076;8.198;2023-12-14T04:31:49;944.63;;;383.17;;
75156;SDS011;63736;50.076;8.198;2023-12-14T04:34:14;941.80;;;382.77;;
75156;SDS011;63736;50.076;8.198;2023-12-14T04:36:44;947.03;;;384.03;;
75156;SDS011;63736;50.076;8.198;2023-12-14T04:39:10;967.65;;;388.55;;
75156;SDS011;63736;50.076;8.198;2023-12-14T04:41:35;974.60;;;395.40;;
75156;SDS011;63736;50.076;8.198;2023-12-14T04:44:00;985.67;;;413.43;;
75156;SDS011;63736;50.076;8.198;2023-12-14T04:46:26;975.33;;;436.53;;
75156;SDS011;63736;50.076;8.198;2023-12-14T04:48:51;978.07;;;481.03;;
75156;SDS011;63736;50.076;8.198;2023-12-14T04:51:16;990.27;;;387.03;;
75156;SDS011;63736;50.076;8.198;2023-12-14T04:53:41;985.53;;;376.20;;
75156;SDS011;63736;50.076;8.198;2023-12-14T04:56:10;981.83;;;373.07;;
75156;SDS011;63736;50.076;8.198;2023-12-14T04:58:36;985.92;;;378.33;;
75156;SDS011;63736;50.076;8.198;2023-12-14T05:01:03;975.72;;;369.40;;
75156;SDS011;63736;50.076;8.198;2023-12-14T05:03:28;1014.93;;;411.80;;
75156;SDS011;63736;50.076;8.198;2023-12-14T05:05:53;1023.83;;;415.33;;
75156;SDS011;63736;50.076;8.198;2023-12-14T05:08:19;1037.83;;;413.67;;
75156;SDS011;63736;50.076;8.198;2023-12-14T05:10:44;1024.77;;;397.70;;
75156;SDS011;63736;50.076;8.198;2023-12-14T05:13:09;1027.37;;;401.40;;
75156;SDS011;63736;50.076;8.198;2023-12-14T05:15:34;1026.77;;;399.30;;
75156;SDS011;63736;50.076;8.198;2023-12-14T05:18:00;1029.80;;;406.43;;
75156;SDS011;63736;50.076;8.198;2023-12-14T05:20:25;1032.73;;;430.53;;
75156;SDS011;63736;50.076;8.198;2023-12-14T05:22:50;1037.17;;;417.40;;
75156;SDS011;63736;50.076;8.198;2023-12-14T05:25:15;1048.17;;;438.43;;
75156;SDS011;63736;50.076;8.198;2023-12-14T05:27:41;1058.00;;;470.87;;
75156;SDS011;63736;50.076;8.198;2023-12-14T05:30:06;1056.63;;;489.20;;
75156;SDS011;63736;50.076;8.198;2023-12-14T05:32:32;1052.97;;;535.08;;
75156;SDS011;63736;50.076;8.198;2023-12-14T05:34:57;1073.27;;;523.17;;
75156;SDS011;63736;50.076;8.198;2023-12-14T05:37:24;1067.97;;;521.75;;
75156;SDS011;63736;50.076;8.198;2023-12-14T05:39:49;1081.57;;;504.37;;
75156;SDS011;63736;50.076;8.198;2023-12-14T05:42:18;1092.00;;;522.30;;
75156;SDS011;63736;50.076;8.198;2023-12-14T05:44:43;1079.95;;;504.58;;
75156;SDS011;63736;50.076;8.198;2023-12-14T05:47:10;1088.43;;;532.72;;
75156;SDS011;63736;50.076;8.198;2023-12-14T05:49:35;1104.93;;;559.93;;
75156;SDS011;63736;50.076;8.198;2023-12-14T05:52:00;1114.53;;;551.97;;
75156;SDS011;63736;50.076;8.198;2023-12-14T05:54:26;1111.30;;;549.77;;
75156;SDS011;63736;50.076;8.198;2023-12-14T05:56:51;1102.35;;;601.08;;
75156;SDS011;63736;50.076;8.198;2023-12-14T05:59:17;1095.37;;;612.77;;
75156;SDS011;63736;50.076;8.198;2023-12-14T06:01:42;1087.30;;;615.67;;
75156;SDS011;63736;50.076;8.198;2023-12-14T06:04:08;1115.82;;;588.22;;
75156;SDS011;63736;50.076;8.198;2023-12-14T06:06:33;1131.53;;;601.20;;
75156;SDS011;63736;50.076;8.198;2023-12-14T06:08:58;1108.07;;;648.33;;
75156;SDS011;63736;50.076;8.198;2023-12-14T06:11:24;1107.40;;;640.87;;
75156;SDS011;63736;50.076;8.198;2023-12-14T06:13:49;1106.27;;;645.70;;
75156;SDS011;63736;50.076;8.198;2023-12-14T06:16:15;1117.63;;;647.75;;
75156;SDS011;63736;50.076;8.198;2023-12-14T06:18:40;1116.47;;;666.10;;
75156;SDS011;63736;50.076;8.198;2023-12-14T06:21:08;1114.38;;;701.70;;
75156;SDS011;63736;50.076;8.198;2023-12-14T06:23:37;1109.03;;;677.43;;
75156;SDS011;63736;50.076;8.198;2023-12-14T06:26:03;1118.90;;;664.75;;
75156;SDS011;63736;50.076;8.198;2023-12-14T06:28:29;1119.47;;;654.87;;
75156;SDS011;63736;50.076;8.198;2023-12-14T06:30:55;1118.75;;;692.72;;
75156;SDS011;63736;50.076;8.198;2023-12-14T06:33:21;1130.40;;;682.50;;
75156;SDS011;63736;50.076;8.198;2023-12-14T06:35:46;1124.77;;;671.17;;
75156;SDS011;63736;50.076;8.198;2023-12-14T06:38:12;1122.37;;;686.67;;
75156;SDS011;63736;50.076;8.198;2023-12-14T06:40:37;1126.00;;;696.23;;
75156;SDS011;63736;50.076;8.198;2023-12-14T06:43:06;1125.57;;;709.83;;
75156;SDS011;63736;50.076;8.198;2023-12-14T06:45:31;1129.30;;;700.63;;
75156;SDS011;63736;50.076;8.198;2023-12-14T06:47:57;1115.70;;;708.10;;
75156;SDS011;63736;50.076;8.198;2023-12-14T06:50:22;1119.80;;;732.73;;
75156;SDS011;63736;50.076;8.198;2023-12-14T06:52:47;1129.93;;;733.77;;
75156;SDS011;63736;50.076;8.198;2023-12-14T06:55:13;1117.53;;;741.90;;
75156;SDS011;63736;50.076;8.198;2023-12-14T06:57:40;1123.43;;;743.65;;
75156;SDS011;63736;50.076;8.198;2023-12-14T07:00:08;1122.30;;;746.10;;
75156;SDS011;63736;50.076;8.198;2023-12-14T07:02:34;1134.90;;;750.67;;
75156;SDS011;63736;50.076;8.198;2023-12-14T07:04:59;1123.03;;;754.73;;
75156;SDS011;63736;50.076;8.198;2023-12-14T07:07:24;1131.07;;;760.43;;
75156;SDS011;63736;50.076;8.198;2023-12-14T07:09:50;1126.17;;;783.77;;
75156;SDS011;63736;50.076;8.198;2023-12-14T07:12:15;1133.93;;;797.03;;
75156;SDS011;63736;50.076;8.198;2023-12-14T07:14:40;1137.87;;;804.97;;
75156;SDS011;63736;50.076;8.198;2023-12-14T07:17:06;1150.13;;;816.67;;
75156;SDS011;63736;50.076;8.198;2023-12-14T07:19:31;1144.20;;;818.83;;
75156;SDS011;63736;50.076;8.198;2023-12-14T07:21:57;1145.50;;;829.58;;
75156;SDS011;63736;50.076;8.198;2023-12-14T07:24:22;1141.50;;;835.30;;
75156;SDS011;63736;50.076;8.198;2023-12-14T07:26:47;1148.23;;;859.30;;
75156;SDS011;63736;50.076;8.198;2023-12-14T07:29:13;1147.43;;;855.40;;
75156;SDS011;63736;50.076;8.198;2023-12-14T07:31:38;1134.40;;;867.87;;
75156;SDS011;63736;50.076;8.198;2023-12-14T07:34:03;1133.97;;;878.90;;
75156;SDS011;63736;50.076;8.198;2023-12-14T07:36:29;1120.20;;;880.73;;
75156;SDS011;63736;50.076;8.198;2023-12-14T07:38:54;1117.57;;;884.47;;
75156;SDS011;63736;50.076;8.198;2023-12-14T07:41:19;1113.07;;;887.93;;
75156;SDS011;63736;50.076;8.198;2023-12-14T07:43:45;1101.63;;;883.97;;
75156;SDS011;63736;50.076;8.198;2023-12-14T07:46:10;1093.43;;;880.10;;
75156;SDS011;63736;50.076;8.198;2023-12-14T07:48:35;1077.13;;;877.37;;
75156;SDS011;63736;50.076;8.198;2023-12-14T07:51:00;1103.07;;;896.27;;
75156;SDS011;63736;50.076;8.198;2023-12-14T07:53:26;1098.27;;;885.03;;
75156;SDS011;63736;50.076;8.198;2023-12-14T07:55:51;1092.83;;;884.00;;
75156;SDS011;63736;50.076;8.198;2023-12-14T07:58:17;1093.95;;;888.05;;
75156;SDS011;63736;50.076;8.198;2023-12-14T08:00:42;1073.70;;;880.80;;
75156;SDS011;63736;50.076;8.198;2023-12-14T08:03:07;1058.77;;;878.77;;
75156;SDS011;63736;50.076;8.198;2023-12-14T08:05:32;1068.07;;;883.10;;
75156;SDS011;63736;50.076;8.198;2023-12-14T08:07:58;1053.07;;;881.17;;
75156;SDS011;63736;50.076;8.198;2023-12-14T08:10:23;1040.07;;;874.80;;
75156;SDS011;63736;50.076;8.198;2023-12-14T08:12:48;1042.67;;;875.40;;
75156;SDS011;63736;50.076;8.198;2023-12-14T08:15:13;1023.23;;;873.50;;
75156;SDS011;63736;50.076;8.198;2023-12-14T08:17:39;1026.60;;;874.10;;
75156;SDS011;63736;50.076;8.198;2023-12-14T08:20:04;1036.43;;;872.77;;
75156;SDS011;63736;50.076;8.198;2023-12-14T08:22:33;985.65;;;866.65;;
75156;SDS011;63736;50.076;8.198;2023-12-14T08:24:59;986.40;;;864.57;;
75156;SDS011;63736;50.076;8.198;2023-12-14T08:27:24;995.37;;;865.27;;
75156;SDS011;63736;50.076;8.198;2023-12-14T08:29:49;985.03;;;866.50;;
75156;SDS011;63736;50.076;8.198;2023-12-14T08:32:15;1010.00;;;872.90;;
75156;SDS011;63736;50.076;8.198;2023-12-14T08:34:40;1010.90;;;868.03;;
75156;SDS011;63736;50.076;8.198;2023-12-14T08:37:05;1010.05;;;869.63;;
75156;SDS011;63736;50.076;8.198;2023-12-14T08:39:31;1000.50;;;865.10;;
75156;SDS011;63736;50.076;8.198;2023-12-14T08:41:56;982.67;;;862.13;;
75156;SDS011;63736;50.076;8.198;2023-12-14T08:44:21;960.47;;;855.67;;
75156;SDS011;63736;50.076;8.198;2023-12-14T08:46:47;958.70;;;853.67;;
75156;SDS011;63736;50.076;8.198;2023-12-14T08:49:12;958.72;;;854.97;;
75156;SDS011;63736;50.076;8.198;2023-12-14T08:51:39;949.10;;;846.97;;
75156;SDS011;63736;50.076;8.198;2023-12-14T08:54:05;937.03;;;835.20;;
75156;SDS011;63736;50.076;8.198;2023-12-14T08:56:31;930.53;;;823.78;;
75156;SDS011;63736;50.076;8.198;2023-12-14T08:58:56;930.40;;;802.73;;
75156;SDS011;63736;50.076;8.198;2023-12-14T09:01:22;949.03;;;802.75;;
75156;SDS011;63736;50.076;8.198;2023-12-14T09:03:48;981.47;;;811.67;;
75156;SDS011;63736;50.076;8.198;2023-12-14T09:06:15;996.63;;;817.27;;
75156;SDS011;63736;50.076;8.198;2023-12-14T09:08:42;986.35;;;822.78;;
75156;SDS011;63736;50.076;8.198;2023-12-14T09:11:07;955.28;;;819.08;;
75156;SDS011;63736;50.076;8.198;2023-12-14T09:13:33;932.33;;;806.70;;
75156;SDS011;63736;50.076;8.198;2023-12-14T09:15:58;917.73;;;793.17;;
75156;SDS011;63736;50.076;8.198;2023-12-14T09:18:24;890.23;;;791.53;;
75156;SDS011;63736;50.076;8.198;2023-12-14T09:20:49;884.37;;;788.67;;
75156;SDS011;63736;50.076;8.198;2023-12-14T09:23:15;873.67;;;782.43;;
75156;SDS011;63736;50.076;8.198;2023-12-14T09:25:41;860.58;;;772.25;;
75156;SDS011;63736;50.076;8.198;2023-12-14T09:28:07;851.37;;;764.70;;
75156;SDS011;63736;50.076;8.198;2023-12-14T09:30:32;849.35;;;764.70;;
75156;SDS011;63736;50.076;8.198;2023-12-14T09:32:57;808.07;;;726.40;;
75156;SDS011;63736;50.076;8.198;2023-12-14T09:35:23;775.57;;;695.80;;
75156;SDS011;63736;50.076;8.198;2023-12-14T09:37:48;769.50;;;691.03;;
75156;SDS011;63736;50.076;8.198;2023-12-14T09:40:14;777.55;;;699.00;;
75156;SDS011;63736;50.076;8.198;2023-12-14T09:42:41;753.10;;;674.85;;
75156;SDS011;63736;50.076;8.198;2023-12-14T09:45:07;691.70;;;517.78;;
75156;SDS011;63736;50.076;8.198;2023-12-14T09:47:34;692.93;;;543.67;;
75156;SDS011;63736;50.076;8.198;2023-12-14T09:50:00;698.03;;;452.75;;
75156;SDS011;63736;50.076;8.198;2023-12-14T09:52:26;585.85;;;215.52;;
75156;SDS011;63736;50.076;8.198;2023-12-14T09:54:51;342.80;;;37.60;;
75156;SDS011;63736;50.076;8.198;2023-12-14T09:57:18;829.37;;;647.63;;
75156;SDS011;63736;50.076;8.198;2023-12-14T09:59:50;814.08;;;702.47;;
75156;SDS011;63736;50.076;8.198;2023-12-14T10:02:19;976.55;;;647.78;;
75156;SDS011;63736;50.076;8.198;2023-12-14T10:04:45;890.67;;;738.27;;
75156;SDS011;63736;50.076;8.198;2023-12-14T10:07:11;953.22;;;718.78;;
75156;SDS011;63736;50.076;8.198;2023-12-14T10:09:37;900.17;;;730.57;;
75156;SDS011;63736;50.076;8.198;2023-12-14T10:12:03;926.17;;;743.72;;
75156;SDS011;63736;50.076;8.198;2023-12-14T10:14:30;925.17;;;728.70;;
75156;SDS011;63736;50.076;8.198;2023-12-14T10:16:56;873.80;;;677.67;;
75156;SDS011;63736;50.076;8.198;2023-12-14T10:19:23;871.88;;;688.83;;
75156;SDS011;63736;50.076;8.198;2023-12-14T10:21:49;837.03;;;624.30;;
75156;SDS011;63736;50.076;8.198;2023-12-14T10:24:15;891.22;;;653.35;;
75156;SDS011;63736;50.076;8.198;2023-12-14T10:26:41;962.90;;;693.78;;
75156;SDS011;63736;50.076;8.198;2023-12-14T10:29:09;931.75;;;724.38;;
75156;SDS011;63736;50.076;8.198;2023-12-14T10:31:34;893.47;;;638.23;;
75156;SDS011;63736;50.076;8.198;2023-12-14T10:34:03;851.42;;;688.22;;
75156;SDS011;63736;50.076;8.198;2023-12-14T10:36:28;857.23;;;646.63;;
75156;SDS011;63736;50.076;8.198;2023-12-14T10:38:56;877.72;;;662.55;;
75156;SDS011;63736;50.076;8.198;2023-12-14T10:41:26;910.28;;;639.30;;
75156;SDS011;63736;50.076;8.198;2023-12-14T10:43:54;856.33;;;374.33;;
75156;SDS011;63736;50.076;8.198;2023-12-14T10:46:20;997.55;;;445.48;;
75156;SDS011;63736;50.076;8.198;2023-12-14T10:48:52;867.13;;;475.67;;
75156;SDS011;63736;50.076;8.198;2023-12-14T10:51:17;859.03;;;636.40;;
75156;SDS011;63736;50.076;8.198;2023-12-14T10:53:44;920.97;;;530.13;;
75156;SDS011;63736;50.076;8.198;2023-12-14T10:56:14;881.58;;;519.70;;
75156;SDS011;63736;50.076;8.198;2023-12-14T10:58:48;933.70;;;391.17;;
75156;SDS011;63736;50.076;8.198;2023-12-14T11:01:18;840.78;;;482.60;;
75156;SDS011;63736;50.076;8.198;2023-12-14T11:03:45;826.88;;;257.23;;
75156;SDS011;63736;50.076;8.198;2023-12-14T11:08:50;733.13;;;182.75;;
75156;SDS011;63736;50.076;8.198;2023-12-14T11:11:17;935.42;;;313.27;;
75156;SDS011;63736;50.076;8.198;2023-12-14T11:13:46;881.15;;;440.50;;
75156;SDS011;63736;50.076;8.198;2023-12-14T11:16:21;797.22;;;150.70;;
75156;SDS011;63736;50.076;8.198;2023-12-14T11:18:47;847.10;;;147.77;;
75156;SDS011;63736;50.076;8.198;2023-12-14T11:21:17;691.90;;;147.27;;
75156;SDS011;63736;50.076;8.198;2023-12-14T11:23:47;829.03;;;148.05;;
75156;SDS011;63736;50.076;8.198;2023-12-14T11:26:20;915.63;;;211.30;;
75156;SDS011;63736;50.076;8.198;2023-12-14T11:28:47;863.53;;;200.57;;
75156;SDS011;63736;50.076;8.198;2023-12-14T11:31:13;535.58;;;73.30;;
75156;SDS011;63736;50.076;8.198;2023-12-14T11:33:39;458.37;;;56.93;;
75156;SDS011;63736;50.076;8.198;2023-12-14T11:36:04;663.43;;;183.90;;
75156;SDS011;63736;50.076;8.198;2023-12-14T11:38:33;733.30;;;515.67;;
75156;SDS011;63736;50.076;8.198;2023-12-14T11:40:58;727.25;;;387.35;;
75156;SDS011;63736;50.076;8.198;2023-12-14T11:43:24;819.22;;;253.60;;
75156;SDS011;63736;50.076;8.198;2023-12-14T11:45:51;713.42;;;415.95;;
75156;SDS011;63736;50.076;8.198;2023-12-14T11:48:17;752.10;;;131.43;;
75156;SDS011;63736;50.076;8.198;2023-12-14T11:50:42;647.27;;;107.27;;
75156;SDS011;63736;50.076;8.198;2023-12-14T11:53:08;615.87;;;116.10;;
75156;SDS011;63736;50.076;8.198;2023-12-14T11:55:36;686.72;;;142.18;;
75156;SDS011;63736;50.076;8.198;2023-12-14T11:58:03;658.85;;;110.93;;
75156;SDS011;63736;50.076;8.198;2023-12-14T12:00:30;480.25;;;59.10;;
75156;SDS011;63736;50.076;8.198;2023-12-14T12:03:08;495.67;;;66.20;;
75156;SDS011;63736;50.076;8.198;2023-12-14T12:05:49;506.50;;;76.10;;
75156;SDS011;63736;50.076;8.198;2023-12-14T12:08:17;772.83;;;141.23;;
75156;SDS011;63736;50.076;8.198;2023-12-14T12:10:44;761.05;;;138.57;;
75156;SDS011;63736;50.076;8.198;2023-12-14T12:13:15;745.10;;;229.63;;
75156;SDS011;63736;50.076;8.198;2023-12-14T12:15:41;820.70;;;186.93;;
75156;SDS011;63736;50.076;8.198;2023-12-14T12:18:08;866.33;;;152.43;;
75156;SDS011;63736;50.076;8.198;2023-12-14T12:20:35;810.72;;;183.82;;
75156;SDS011;63736;50.076;8.198;2023-12-14T12:23:01;803.58;;;280.25;;
75156;SDS011;63736;50.076;8.198;2023-12-14T12:25:28;795.55;;;514.90;;
75156;SDS011;63736;50.076;8.198;2023-12-14T12:27:54;792.20;;;462.60;;
75156;SDS011;63736;50.076;8.198;2023-12-14T12:30:20;768.88;;;537.38;;
75156;SDS011;63736;50.076;8.198;2023-12-14T12:32:46;811.53;;;196.80;;
75156;SDS011;63736;50.076;8.198;2023-12-14T12:35:12;800.60;;;364.42;;
75156;SDS011;63736;50.076;8.198;2023-12-14T12:37:38;845.33;;;360.58;;
75156;SDS011;63736;50.076;8.198;2023-12-14T12:40:04;786.10;;;339.23;;
75156;SDS011;63736;50.076;8.198;2023-12-14T12:42:32;796.40;;;239.90;;
75156;SDS011;63736;50.076;8.198;2023-12-14T12:44:57;794.07;;;158.10;;
75156;SDS011;63736;50.076;8.198;2023-12-14T12:47:23;792.78;;;286.60;;
75156;SDS011;63736;50.076;8.198;2023-12-14T12:49:48;772.33;;;142.77;;
75156;SDS011;63736;50.076;8.198;2023-12-14T12:52:13;781.60;;;294.00;;
75156;SDS011;63736;50.076;8.198;2023-12-14T12:54:39;811.80;;;279.73;;
75156;SDS011;63736;50.076;8.198;2023-12-14T12:57:05;784.05;;;273.58;;
75156;SDS011;63736;50.076;8.198;2023-12-14T12:59:30;874.17;;;223.60;;
75156;SDS011;63736;50.076;8.198;2023-12-14T13:01:55;761.13;;;164.23;;
75156;SDS011;63736;50.076;8.198;2023-12-14T13:04:21;806.67;;;323.70;;
75156;SDS011;63736;50.076;8.198;2023-12-14T13:06:47;775.03;;;209.02;;
75156;SDS011;63736;50.076;8.198;2023-12-14T13:09:14;431.83;;;51.95;;
75156;SDS011;63736;50.076;8.198;2023-12-14T13:11:39;728.28;;;299.90;;
75156;SDS011;63736;50.076;8.198;2023-12-14T13:14:05;778.10;;;204.40;;
75156;SDS011;63736;50.076;8.198;2023-12-14T13:16:32;803.92;;;289.55;;
75156;SDS011;63736;50.076;8.198;2023-12-14T13:18:59;812.00;;;364.00;;
75156;SDS011;63736;50.076;8.198;2023-12-14T13:21:24;808.47;;;434.80;;
75156;SDS011;63736;50.076;8.198;2023-12-14T13:23:49;843.80;;;443.87;;
75156;SDS011;63736;50.076;8.198;2023-12-14T13:26:16;801.13;;;399.47;;
75156;SDS011;63736;50.076;8.198;2023-12-14T13:28:41;839.10;;;417.70;;
75156;SDS011;63736;50.076;8.198;2023-12-14T13:31:06;737.03;;;286.30;;
75156;SDS011;63736;50.076;8.198;2023-12-14T13:33:31;791.17;;;212.80;;
75156;SDS011;63736;50.076;8.198;2023-12-14T13:35:57;794.47;;;207.00;;
75156;SDS011;63736;50.076;8.198;2023-12-14T13:38:23;673.47;;;179.75;;
75156;SDS011;63736;50.076;8.198;2023-12-14T13:40:48;792.10;;;180.97;;
75156;SDS011;63736;50.076;8.198;2023-12-14T13:43:13;783.43;;;322.13;;
75156;SDS011;63736;50.076;8.198;2023-12-14T13:45:39;802.20;;;309.43;;
75156;SDS011;63736;50.076;8.198;2023-12-14T13:48:06;798.30;;;312.67;;
75156;SDS011;63736;50.076;8.198;2023-12-14T13:50:32;806.07;;;266.10;;
75156;SDS011;63736;50.076;8.198;2023-12-14T13:52:57;912.13;;;818.90;;